Time;durP1;ratioP1;P1;durP2;ratioP2;P2;SDS_P1;SDS_P2;PMS_P1;PMS_P2;Temp;Humidity;BMP_temperature;BMP_pressure;BME280_temperature;BME280_humidity;BME280_pressure;Samples;Min_cycle;Max_cycle;Signal;HPM_P1;HPM_P2
2021/07/24 00:01:12;;;;;;;14.80;12.85;;;18.10;84.30;;;;;;6155927;23;20207;-92
2021/07/24 00:03:39;;;;;;;14.32;12.27;;;18.00;84.00;;;;;;6156165;23;20277;-91
2021/07/24 00:06:06;;;;;;;14.27;12.75;;;17.90;84.30;;;;;;6155821;23;20274;-91
2021/07/24 00:08:33;;;;;;;14.25;11.85;;;17.90;84.90;;;;;;6156061;23;20556;-92
2021/07/24 00:11:03;;;;;;;14.25;12.32;;;17.90;85.70;;;;;;6155187;23;20215;-92
2021/07/24 00:13:30;;;;;;;17.00;12.48;;;18.00;85.00;;;;;;6155407;23;20258;-92
2021/07/24 00:15:57;;;;;;;16.77;12.98;;;18.00;84.70;;;;;;6153871;23;20210;-91
2021/07/24 00:18:25;;;;;;;14.25;12.55;;;18.00;84.60;;;;;;6155994;23;20262;-92
2021/07/24 00:20:52;;;;;;;14.18;12.68;;;17.90;85.00;;;;;;6155318;23;20214;-91
2021/07/24 00:23:19;;;;;;;15.18;13.25;;;17.80;85.20;;;;;;6155676;23;20319;-91
2021/07/24 00:25:47;;;;;;;14.65;12.30;;;17.80;85.30;;;;;;6155208;23;20246;-91
2021/07/24 00:28:14;;;;;;;16.35;12.52;;;17.70;85.60;;;;;;6155010;23;20213;-91
2021/07/24 00:30:41;;;;;;;14.80;12.15;;;17.60;87.20;;;;;;6154430;23;20738;-91
2021/07/24 00:33:09;;;;;;;14.70;12.45;;;17.70;87.10;;;;;;6154617;23;20270;-91
2021/07/24 00:35:38;;;;;;;14.02;12.52;;;17.80;86.80;;;;;;6154561;23;20250;-91
2021/07/24 00:38:07;;;;;;;15.00;12.85;;;17.80;86.90;;;;;;6155072;23;20186;-91
2021/07/24 00:40:37;;;;;;;14.57;12.88;;;17.70;87.40;;;;;;6154200;23;20281;-92
2021/07/24 00:43:06;;;;;;;16.45;12.70;;;17.70;87.90;;;;;;6154899;23;20231;-92
2021/07/24 00:45:40;;;;;;;13.43;11.68;;;17.70;88.10;;;;;;6153495;23;20542;-92
2021/07/24 00:48:08;;;;;;;14.80;12.05;;;17.70;88.50;;;;;;6154830;23;20255;-91
2021/07/24 00:50:35;;;;;;;13.27;11.98;;;17.60;88.30;;;;;;6153527;23;20658;-93
2021/07/24 00:53:12;;;;;;;15.23;12.52;;;17.50;88.90;;;;;;6129352;23;20266;-92
2021/07/24 00:55:40;;;;;;;13.20;11.77;;;17.50;88.20;;;;;;6154376;23;20203;-91
2021/07/24 00:58:22;;;;;;;14.93;12.27;;;17.50;89.30;;;;;;6154364;23;20263;-91
2021/07/24 01:00:50;;;;;;;14.25;12.10;;;17.60;89.20;;;;;;6153556;23;20210;-91
2021/07/24 01:03:17;;;;;;;14.38;12.88;;;17.60;89.00;;;;;;6155119;23;20734;-91
2021/07/24 01:05:45;;;;;;;13.85;11.77;;;17.60;89.00;;;;;;6154180;23;20839;-91
2021/07/24 01:08:14;;;;;;;15.88;12.45;;;17.50;89.10;;;;;;6154755;23;20171;-91
2021/07/24 01:10:41;;;;;;;16.80;12.77;;;17.50;89.50;;;;;;6154253;23;20278;-91
2021/07/24 01:13:08;;;;;;;15.10;12.13;;;17.40;89.70;;;;;;6153948;23;20202;-90
2021/07/24 01:15:35;;;;;;;15.98;12.98;;;17.30;90.20;;;;;;6152346;23;20273;-92
2021/07/24 01:18:02;;;;;;;16.90;13.35;;;17.20;90.50;;;;;;6153159;23;20182;-91
2021/07/24 01:20:29;;;;;;;18.50;13.38;;;17.20;90.50;;;;;;6152529;23;20302;-92
2021/07/24 01:22:58;;;;;;;16.17;13.13;;;17.20;90.60;;;;;;6152908;23;20287;-90
2021/07/24 01:25:25;;;;;;;16.35;13.30;;;17.10;90.80;;;;;;6151858;23;20203;-93
2021/07/24 01:27:52;;;;;;;16.25;12.70;;;17.10;90.90;;;;;;6153057;23;20197;-92
2021/07/24 01:30:19;;;;;;;15.00;13.40;;;17.10;91.00;;;;;;6154299;23;20205;-91
2021/07/24 01:32:46;;;;;;;15.30;12.57;;;17.10;91.30;;;;;;6155240;23;20556;-92
2021/07/24 01:35:14;;;;;;;14.82;13.20;;;17.10;91.30;;;;;;6154685;23;20279;-91
2021/07/24 01:37:41;;;;;;;16.65;12.95;;;17.10;91.30;;;;;;6155468;23;20701;-91
2021/07/24 01:40:12;;;;;;;14.40;12.27;;;17.00;91.30;;;;;;6154390;23;20219;-91
2021/07/24 01:42:39;;;;;;;13.85;11.85;;;17.00;91.90;;;;;;6155045;23;20198;-91
2021/07/24 01:45:07;;;;;;;19.50;12.77;;;17.10;91.80;;;;;;6154666;23;20233;-91
2021/07/24 01:47:36;;;;;;;15.50;12.75;;;17.10;91.80;;;;;;6155447;23;20195;-91
2021/07/24 01:52:51;;;;;;;13.77;12.02;;;17.10;91.80;;;;;;6154977;23;20190;-91
2021/07/24 01:55:25;;;;;;;13.93;12.05;;;17.10;91.60;;;;;;6155026;23;20198;-91
2021/07/24 01:57:54;;;;;;;14.70;12.25;;;17.10;92.00;;;;;;6155757;23;20238;-91
2021/07/24 02:00:21;;;;;;;14.93;12.23;;;17.00;91.90;;;;;;6154660;23;20207;-90
2021/07/24 02:02:53;;;;;;;14.63;11.77;;;17.00;91.90;;;;;;6155798;23;20218;-91
2021/07/24 02:05:29;;;;;;;18.65;12.98;;;17.00;91.90;;;;;;6155247;23;20286;-91
2021/07/24 02:08:00;;;;;;;15.25;12.60;;;17.00;91.90;;;;;;6156030;23;20170;-92
2021/07/24 02:10:35;;;;;;;14.07;12.43;;;17.00;91.90;;;;;;6155663;23;20280;-91
2021/07/24 02:13:02;;;;;;;16.38;13.57;;;16.90;91.90;;;;;;6156087;23;20185;-90
2021/07/24 02:15:29;;;;;;;15.38;12.85;;;16.90;91.90;;;;;;6155311;23;20290;-90
2021/07/24 02:17:57;;;;;;;15.05;12.43;;;16.80;91.90;;;;;;6155545;23;20186;-91
2021/07/24 02:20:25;;;;;;;15.90;12.57;;;16.80;91.90;;;;;;6155492;23;20274;-91
2021/07/24 02:22:52;;;;;;;13.45;11.77;;;16.70;91.90;;;;;;6155985;23;20206;-91
2021/07/24 02:25:20;;;;;;;13.88;12.13;;;16.70;92.10;;;;;;6155218;23;20278;-91
2021/07/24 02:27:50;;;;;;;14.13;12.25;;;16.80;92.00;;;;;;6155835;23;20254;-90
2021/07/24 02:30:17;;;;;;;14.77;12.23;;;16.70;92.00;;;;;;6155375;23;20200;-91
2021/07/24 02:32:45;;;;;;;17.70;13.23;;;16.70;92.20;;;;;;6155221;23;20664;-91
2021/07/24 02:35:13;;;;;;;12.65;11.25;;;16.70;91.90;;;;;;6155457;23;20643;-91
2021/07/24 02:37:41;;;;;;;14.75;12.88;;;16.70;92.10;;;;;;6156046;23;20254;-91
2021/07/24 02:40:08;;;;;;;14.50;12.98;;;16.70;92.40;;;;;;6157343;23;20222;-91
2021/07/24 02:42:35;;;;;;;15.80;11.93;;;16.60;92.50;;;;;;6157629;23;20499;-92
2021/07/24 02:45:04;;;;;;;13.95;12.55;;;16.50;92.90;;;;;;6156858;23;20269;-91
2021/07/24 02:47:32;;;;;;;13.70;12.27;;;16.60;92.80;;;;;;6157588;23;20175;-91
2021/07/24 02:49:58;;;;;;;16.73;12.65;;;16.60;92.70;;;;;;6156531;23;20270;-90
2021/07/24 02:52:26;;;;;;;14.18;12.45;;;16.70;92.60;;;;;;6158111;23;20179;-91
2021/07/24 02:54:53;;;;;;;15.95;13.25;;;16.70;92.40;;;;;;6157127;23;20698;-91
2021/07/24 02:57:20;;;;;;;15.20;12.57;;;16.70;92.30;;;;;;6157909;23;20199;-91
2021/07/24 02:59:47;;;;;;;17.75;13.02;;;16.70;92.40;;;;;;6161729;23;20564;-90
2021/07/24 03:02:16;;;;;;;16.00;12.30;;;16.60;92.40;;;;;;6163546;23;20210;-90
2021/07/24 03:04:43;;;;;;;16.40;13.40;;;16.60;92.50;;;;;;6161805;23;20230;-91
2021/07/24 03:07:10;;;;;;;13.55;12.13;;;16.60;93.00;;;;;;6161653;23;20179;-90
2021/07/24 03:09:37;;;;;;;19.63;13.40;;;16.60;93.00;;;;;;6162749;23;20209;-90
2021/07/24 03:12:06;;;;;;;16.30;12.60;;;16.50;93.00;;;;;;6165079;23;20258;-90
2021/07/24 03:14:33;;;;;;;15.40;13.48;;;16.40;93.30;;;;;;6160811;23;20207;-91
2021/07/24 03:17:00;;;;;;;14.98;13.18;;;16.40;93.10;;;;;;6158051;23;20250;-91
2021/07/24 03:19:28;;;;;;;14.52;12.95;;;16.40;93.30;;;;;;6157740;23;20258;-90
2021/07/24 03:21:57;;;;;;;17.00;13.27;;;16.40;93.40;;;;;;6157121;23;20226;-91
2021/07/24 03:24:24;;;;;;;18.20;13.80;;;16.30;93.50;;;;;;6157948;23;20277;-91
2021/07/24 03:26:51;;;;;;;18.10;12.90;;;16.30;93.80;;;;;;6157044;23;20223;-91
2021/07/24 03:29:18;;;;;;;18.05;13.70;;;16.40;93.60;;;;;;6157804;23;20259;-91
2021/07/24 03:31:48;;;;;;;15.75;13.00;;;16.50;93.40;;;;;;6156606;23;20241;-91
2021/07/24 03:34:15;;;;;;;14.60;13.02;;;16.50;93.50;;;;;;6157496;23;20251;-90
2021/07/24 03:36:43;;;;;;;14.85;12.30;;;16.50;93.40;;;;;;6156638;23;20278;-91
2021/07/24 03:39:11;;;;;;;16.75;13.20;;;16.60;93.20;;;;;;6157248;23;20171;-90
2021/07/24 03:41:38;;;;;;;16.45;12.88;;;16.60;93.40;;;;;;6156736;23;20207;-91
2021/07/24 03:44:06;;;;;;;15.73;12.77;;;16.60;93.30;;;;;;6157751;23;20206;-90
2021/07/24 03:46:33;;;;;;;17.90;13.43;;;16.60;93.10;;;;;;6157019;23;20260;-91
2021/07/24 03:49:01;;;;;;;15.18;13.15;;;16.60;93.10;;;;;;6156794;23;20274;-91
2021/07/24 03:51:28;;;;;;;15.45;13.57;;;16.50;93.10;;;;;;6156662;23;20571;-91
2021/07/24 03:53:56;;;;;;;17.10;14.02;;;16.60;93.10;;;;;;6156847;23;20176;-91
2021/07/24 03:56:23;;;;;;;15.30;13.13;;;16.60;93.20;;;;;;6156328;23;20274;-91
2021/07/24 03:58:52;;;;;;;17.48;13.60;;;16.60;93.20;;;;;;6156861;23;20686;-91
2021/07/24 04:01:23;;;;;;;18.05;13.35;;;16.50;93.20;;;;;;6155556;23;20207;-91
2021/07/24 04:03:52;;;;;;;15.75;13.68;;;16.60;93.20;;;;;;6156664;23;20200;-90
2021/07/24 04:06:22;;;;;;;15.82;13.38;;;16.70;93.10;;;;;;6156125;23;20281;-91
2021/07/24 04:08:50;;;;;;;15.98;13.23;;;16.80;93.10;;;;;;6156941;23;20243;-91
2021/07/24 04:11:20;;;;;;;16.88;12.70;;;16.90;93.00;;;;;;6156128;23;20591;-91
2021/07/24 04:13:48;;;;;;;16.45;13.60;;;17.00;92.60;;;;;;6156793;23;20560;-91
2021/07/24 04:16:15;;;;;;;17.30;12.95;;;17.10;92.50;;;;;;6156078;23;20203;-91
2021/07/24 04:18:43;;;;;;;15.20;13.10;;;17.10;92.50;;;;;;6155690;23;20254;-92
2021/07/24 04:21:10;;;;;;;14.23;12.55;;;17.10;92.30;;;;;;6155905;23;20223;-92
2021/07/24 04:23:37;;;;;;;14.75;12.93;;;17.20;92.00;;;;;;6155201;23;20195;-92
2021/07/24 04:26:05;;;;;;;15.82;13.07;;;17.30;92.00;;;;;;6155180;23;20210;-92
2021/07/24 04:28:33;;;;;;;18.85;13.10;;;17.20;92.00;;;;;;6155383;23;20180;-91
2021/07/24 04:31:00;;;;;;;15.65;12.25;;;17.30;92.00;;;;;;6154695;23;20205;-92
2021/07/24 04:33:27;;;;;;;15.38;13.25;;;17.30;91.90;;;;;;6155525;23;20179;-92
2021/07/24 04:35:54;;;;;;;15.50;12.63;;;17.40;92.00;;;;;;6154454;23;20656;-91
2021/07/24 04:38:21;;;;;;;14.93;12.93;;;17.40;91.90;;;;;;6154765;23;20258;-91
2021/07/24 04:40:48;;;;;;;15.05;13.23;;;17.30;92.00;;;;;;6153959;23;20231;-91
2021/07/24 04:43:16;;;;;;;19.15;13.60;;;17.40;92.00;;;;;;6155112;23;20260;-91
2021/07/24 04:45:44;;;;;;;18.17;13.80;;;17.40;92.00;;;;;;6154636;23;20258;-90
2021/07/24 04:48:12;;;;;;;15.32;13.73;;;17.30;92.00;;;;;;6155266;23;20191;-92
2021/07/24 04:50:50;;;;;;;17.42;14.50;;;17.30;92.00;;;;;;6154166;23;20214;-93
2021/07/24 04:53:17;;;;;;;20.35;14.52;;;17.30;92.00;;;;;;6155358;23;20266;-92
2021/07/24 04:55:45;;;;;;;16.48;14.00;;;17.30;92.00;;;;;;6154386;23;20209;-92
2021/07/24 04:58:12;;;;;;;16.67;13.88;;;17.30;91.70;;;;;;6155076;23;20491;-92
2021/07/24 05:00:42;;;;;;;15.95;14.25;;;17.40;91.50;;;;;;6154184;23;20693;-91
2021/07/24 05:03:12;;;;;;;15.57;13.77;;;17.40;91.60;;;;;;6155217;23;20182;-92
2021/07/24 05:05:39;;;;;;;15.48;13.88;;;17.50;91.30;;;;;;6155313;23;20222;-91
2021/07/24 05:08:08;;;;;;;17.25;14.75;;;17.50;90.90;;;;;;6155470;23;20250;-91
2021/07/24 05:10:35;;;;;;;17.67;13.38;;;17.60;90.80;;;;;;6154524;23;20227;-92
2021/07/24 05:13:02;;;;;;;14.70;13.05;;;17.60;90.70;;;;;;6155479;23;20254;-93
2021/07/24 05:15:29;;;;;;;18.67;14.20;;;17.60;90.70;;;;;;6155858;23;20222;-92
2021/07/24 05:18:17;;;;;;;16.25;13.48;;;17.70;90.60;;;;;;6154710;23;20202;-91
2021/07/24 05:20:44;;;;;;;19.40;13.65;;;17.80;90.50;;;;;;6154176;23;20234;-92
2021/07/24 05:23:11;;;;;;;15.32;13.43;;;17.90;90.20;;;;;;6155116;23;20253;-91
2021/07/24 05:25:39;;;;;;;18.15;13.75;;;17.90;89.50;;;;;;6154870;23;20513;-92
2021/07/24 05:28:06;;;;;;;15.23;13.10;;;18.00;89.00;;;;;;6155807;23;20175;-91
2021/07/24 05:30:33;;;;;;;16.02;13.65;;;18.00;88.40;;;;;;6154900;23;20286;-90
2021/07/24 05:33:00;;;;;;;17.58;12.85;;;18.10;88.20;;;;;;6156039;23;20210;-90
2021/07/24 05:35:28;;;;;;;15.82;13.55;;;18.30;88.80;;;;;;6155954;23;20203;-91
2021/07/24 05:37:55;;;;;;;16.77;14.07;;;18.40;88.40;;;;;;6156510;23;20171;-92
2021/07/24 05:41:17;;;;;;;17.85;13.80;;;18.50;85.80;;;;;;6155230;23;20198;-91
2021/07/24 05:43:44;;;;;;;15.15;13.50;;;18.60;85.50;;;;;;6155824;23;20248;-92
2021/07/24 05:46:11;;;;;;;16.77;13.63;;;18.70;84.10;;;;;;6155419;23;20206;-91
2021/07/24 05:48:38;;;;;;;16.05;13.35;;;18.80;83.30;;;;;;6154267;23;20195;-91
2021/07/24 05:51:10;;;;;;;15.32;13.30;;;19.00;82.20;;;;;;6153439;23;20282;-91
2021/07/24 05:53:37;;;;;;;16.33;13.57;;;19.10;80.20;;;;;;6154155;23;20255;-93
2021/07/24 05:56:04;;;;;;;15.88;13.13;;;19.10;80.20;;;;;;6152924;23;20277;-92
2021/07/24 05:58:31;;;;;;;16.05;13.38;;;19.30;80.30;;;;;;6153442;23;20175;-93
2021/07/24 06:00:58;;;;;;;16.05;14.02;;;19.60;80.50;;;;;;6152505;23;20273;-92
2021/07/24 06:03:25;;;;;;;15.88;13.60;;;19.80;78.30;;;;;;6153800;23;20186;-92
2021/07/24 06:05:52;;;;;;;16.65;13.82;;;19.90;77.10;;;;;;6153205;23;20281;-89
2021/07/24 06:08:20;;;;;;;16.02;13.60;;;19.90;77.00;;;;;;6154093;23;20210;-89
2021/07/24 06:10:47;;;;;;;16.42;14.25;;;19.80;77.70;;;;;;6154256;23;20618;-91
2021/07/24 06:13:16;;;;;;;15.10;13.02;;;19.90;77.00;;;;;;6154288;23;20226;-90
2021/07/24 06:15:44;;;;;;;15.20;13.30;;;20.00;76.70;;;;;;6157621;23;20234;-90
2021/07/24 06:18:11;;;;;;;18.17;13.38;;;20.10;76.70;;;;;;6160979;23;20222;-89
2021/07/24 06:20:39;;;;;;;15.80;12.80;;;20.20;75.90;;;;;;6160728;23;20203;-87
2021/07/24 06:23:06;;;;;;;18.73;13.25;;;20.40;75.80;;;;;;6160765;23;20167;-88
2021/07/24 06:25:35;;;;;;;15.27;12.85;;;20.50;74.30;;;;;;6160511;23;20543;-89
2021/07/24 06:28:21;;;;;;;14.98;12.93;;;20.50;74.10;;;;;;6161853;23;20599;-88
2021/07/24 06:30:48;;;;;;;14.35;12.68;;;20.70;72.60;;;;;;6159708;23;20210;-90
2021/07/24 06:33:15;;;;;;;16.98;12.70;;;20.70;72.00;;;;;;6161907;23;20226;-87
2021/07/24 06:35:48;;;;;;;16.80;12.90;;;20.70;73.20;;;;;;6159796;23;20611;-88
2021/07/24 06:38:15;;;;;;;15.05;13.15;;;20.70;73.00;;;;;;6160592;23;20215;-88
2021/07/24 06:40:44;;;;;;;16.77;13.20;;;20.70;72.60;;;;;;6159494;23;20229;-89
2021/07/24 06:43:17;;;;;;;15.07;12.70;;;20.70;73.00;;;;;;6161398;23;20207;-88
2021/07/24 06:45:44;;;;;;;18.55;13.07;;;20.80;73.40;;;;;;6160191;23;20290;-88
2021/07/24 06:48:11;;;;;;;15.50;12.88;;;20.90;72.10;;;;;;6160414;23;20226;-87
2021/07/24 06:50:38;;;;;;;16.65;13.27;;;20.90;73.20;;;;;;6159712;23;20238;-89
2021/07/24 06:53:05;;;;;;;13.95;11.95;;;21.10;71.00;;;;;;6158731;23;20245;-89
2021/07/24 06:55:32;;;;;;;18.17;12.63;;;21.30;70.60;;;;;;6157320;23;20218;-89
2021/07/24 06:58:02;;;;;;;17.70;12.85;;;21.50;69.50;;;;;;6155530;23;20683;-90
2021/07/24 07:00:30;;;;;;;14.73;12.75;;;21.70;68.10;;;;;;6154001;23;20232;-88
2021/07/24 07:02:58;;;;;;;14.05;12.13;;;21.90;65.50;;;;;;6154832;23;20192;-88
2021/07/24 07:05:25;;;;;;;16.38;13.02;;;22.10;62.70;;;;;;6156679;23;20210;-89
2021/07/24 07:07:52;;;;;;;17.70;13.10;;;22.40;61.30;;;;;;6158151;23;20727;-88
2021/07/24 07:10:19;;;;;;;16.52;12.80;;;22.60;58.30;;;;;;6150895;23;20273;-90
2021/07/24 07:12:46;;;;;;;15.23;12.75;;;22.90;59.70;;;;;;6152325;23;20564;-89
2021/07/24 07:15:14;;;;;;;14.63;12.65;;;23.10;56.60;;;;;;6153249;23;20202;-88
2021/07/24 07:17:41;;;;;;;15.57;11.95;;;23.10;55.10;;;;;;6153939;23;20174;-89
2021/07/24 07:20:10;;;;;;;13.40;11.95;;;23.50;55.30;;;;;;6152360;23;20219;-89
2021/07/24 07:22:37;;;;;;;14.38;12.88;;;23.80;50.50;;;;;;6162480;23;20234;-89
2021/07/24 07:25:05;;;;;;;16.25;12.82;;;23.90;50.00;;;;;;6162092;23;20231;-87
2021/07/24 07:27:32;;;;;;;13.88;12.38;;;24.00;50.40;;;;;;6159934;23;20278;-90
2021/07/24 07:29:59;;;;;;;14.75;12.65;;;24.00;50.70;;;;;;6153780;23;20708;-90
2021/07/24 07:32:27;;;;;;;14.00;12.43;;;23.80;49.80;;;;;;6155383;23;20171;-88
2021/07/24 07:34:55;;;;;;;14.43;12.52;;;24.00;50.60;;;;;;6153032;23;20278;-88
2021/07/24 07:37:22;;;;;;;14.48;12.93;;;24.00;52.90;;;;;;6154934;23;20168;-89
2021/07/24 07:39:49;;;;;;;13.90;12.02;;;24.10;51.30;;;;;;6153924;23;20175;-88
2021/07/24 07:42:16;;;;;;;12.75;11.27;;;24.30;51.50;;;;;;6157649;23;20207;-86
2021/07/24 07:44:43;;;;;;;15.82;12.52;;;24.60;51.70;;;;;;6155684;23;20566;-86
2021/07/24 07:47:12;;;;;;;16.42;12.80;;;24.90;49.40;;;;;;6155749;23;20210;-86
2021/07/24 07:49:40;;;;;;;15.38;13.02;;;25.20;48.40;;;;;;6154304;23;20262;-86
2021/07/24 07:52:08;;;;;;;13.30;11.98;;;25.50;47.00;;;;;;6130402;23;20178;-88
2021/07/24 07:54:35;;;;;;;15.18;12.77;;;25.90;46.50;;;;;;6154165;23;20494;-87
2021/07/24 07:57:04;;;;;;;14.75;12.20;;;26.00;45.20;;;;;;6154180;23;20258;-90
2021/07/24 07:59:32;;;;;;;14.52;12.45;;;26.10;44.90;;;;;;6155289;23;20160;-88
2021/07/24 08:01:59;;;;;;;15.77;13.30;;;26.40;43.10;;;;;;6154322;23;20270;-88
2021/07/24 08:04:25;;;;;;;16.60;13.35;;;26.40;42.20;;;;;;6154617;23;20187;-91
2021/07/24 08:06:54;;;;;;;15.07;12.48;;;26.20;42.80;;;;;;6152900;23;20282;-89
2021/07/24 08:09:21;;;;;;;14.88;12.45;;;26.00;42.30;;;;;;6154793;23;20205;-88
2021/07/24 08:11:49;;;;;;;15.85;13.27;;;26.00;41.90;;;;;;6152707;23;20207;-88
2021/07/24 08:14:17;;;;;;;15.38;12.57;;;26.00;42.50;;;;;;6153669;23;20167;-88
2021/07/24 08:16:45;;;;;;;14.77;13.10;;;25.80;42.50;;;;;;6153038;23;20282;-88
2021/07/24 08:19:12;;;;;;;17.38;12.68;;;25.70;43.70;;;;;;6154619;23;20175;-88
2021/07/24 08:21:39;;;;;;;14.70;12.55;;;25.50;45.20;;;;;;6152652;23;20286;-88
2021/07/24 08:24:07;;;;;;;14.95;11.85;;;25.50;45.70;;;;;;6153277;23;20206;-86
2021/07/24 08:26:34;;;;;;;14.07;12.48;;;25.50;45.40;;;;;;6151737;23;20285;-85
2021/07/24 08:29:01;;;;;;;14.27;12.70;;;25.50;43.70;;;;;;6153194;23;20186;-87
2021/07/24 08:31:28;;;;;;;16.05;12.50;;;25.30;44.40;;;;;;6152379;23;20266;-87
2021/07/24 08:34:01;;;;;;;14.10;12.63;;;25.30;45.10;;;;;;6152592;23;20186;-87
2021/07/24 08:36:27;;;;;;;14.52;12.48;;;25.20;46.00;;;;;;6151546;23;20207;-86
2021/07/24 08:38:54;;;;;;;16.35;12.68;;;25.00;47.40;;;;;;6154397;23;20202;-86
2021/07/24 08:41:23;;;;;;;13.90;12.43;;;25.00;47.60;;;;;;6154456;23;20290;-86
2021/07/24 08:43:50;;;;;;;15.73;13.25;;;24.90;48.30;;;;;;6155073;23;20181;-86
2021/07/24 08:46:19;;;;;;;14.93;12.77;;;24.90;48.60;;;;;;6153994;23;20249;-89
2021/07/24 08:48:46;;;;;;;13.77;12.30;;;24.80;47.20;;;;;;6154167;23;20231;-88
2021/07/24 08:51:17;;;;;;;13.88;12.18;;;24.50;47.90;;;;;;6152956;23;20222;-89
2021/07/24 08:53:45;;;;;;;16.15;13.02;;;24.40;50.50;;;;;;6154819;23;20164;-88
2021/07/24 08:56:25;;;;;;;14.68;12.95;;;24.30;50.00;;;;;;6158396;23;20230;-86
2021/07/24 08:58:58;;;;;;;16.25;13.10;;;24.10;50.60;;;;;;6159138;23;20675;-85
2021/07/24 09:01:27;;;;;;;16.70;13.77;;;24.00;50.70;;;;;;6160388;23;20203;-86
2021/07/24 09:03:55;;;;;;;14.70;13.05;;;23.80;51.50;;;;;;6162311;23;20242;-86
2021/07/24 09:06:23;;;;;;;14.63;13.13;;;23.60;53.80;;;;;;6161209;23;20235;-85
2021/07/24 09:08:53;;;;;;;15.48;12.95;;;23.60;56.80;;;;;;6160348;23;20270;-88
2021/07/24 09:11:21;;;;;;;17.50;13.25;;;23.60;57.40;;;;;;6158698;23;20270;-88
2021/07/24 09:13:49;;;;;;;17.35;13.63;;;23.50;59.50;;;;;;6160508;23;20258;-88
2021/07/24 09:16:18;;;;;;;18.95;13.65;;;23.20;58.80;;;;;;6159736;23;20286;-89
2021/07/24 09:18:46;;;;;;;15.68;13.43;;;23.00;58.60;;;;;;6159303;23;20210;-89
2021/07/24 09:21:15;;;;;;;14.52;13.02;;;23.00;60.70;;;;;;6156785;23;20279;-89
2021/07/24 09:23:47;;;;;;;14.73;12.52;;;23.00;60.30;;;;;;6158422;23;20724;-89
2021/07/24 09:26:30;;;;;;;19.70;13.40;;;22.90;62.40;;;;;;6158264;23;20207;-90
2021/07/24 09:29:10;;;;;;;16.52;12.80;;;22.70;66.10;;;;;;6158133;23;20237;-90
2021/07/24 09:31:44;;;;;;;17.27;12.95;;;22.70;64.70;;;;;;6157699;23;20210;-90
2021/07/24 09:34:13;;;;;;;18.67;12.80;;;22.70;65.70;;;;;;6158480;23;20195;-89
2021/07/24 09:36:41;;;;;;;15.48;13.25;;;22.90;65.20;;;;;;6155335;23;20258;-89
2021/07/24 09:39:14;;;;;;;20.50;18.38;;;23.30;64.10;;;;;;6156121;23;20258;-90
2021/07/24 09:41:42;;;;;;;15.27;13.27;;;23.60;59.20;;;;;;6155979;23;20202;-89
2021/07/24 09:44:09;;;;;;;16.35;14.50;;;23.90;59.40;;;;;;6156081;23;20175;-89
2021/07/24 09:46:37;;;;;;;13.15;11.65;;;24.70;57.60;;;;;;6156145;23;20217;-86
2021/07/24 09:49:14;;;;;;;14.63;11.85;;;25.50;52.50;;;;;;6156727;23;20675;-87
2021/07/24 09:51:42;;;;;;;17.20;11.95;;;26.90;45.80;;;;;;6155122;23;20208;-90
2021/07/24 09:54:25;;;;;;;15.32;11.32;;;28.00;41.00;;;;;;6153827;23;20254;-90
2021/07/24 09:56:53;;;;;;;13.85;12.30;;;29.70;36.40;;;;;;6152787;23;20210;-89
2021/07/24 09:59:22;;;;;;;12.50;10.98;;;31.30;29.30;;;;;;6153385;23;20182;-89
2021/07/24 10:01:59;;;;;;;13.00;11.55;;;32.10;27.10;;;;;;6152604;23;20206;-90
2021/07/24 10:04:38;;;;;;;13.27;11.82;;;32.80;25.80;;;;;;6153768;23;20311;-88
2021/07/24 10:07:07;;;;;;;13.10;11.55;;;33.00;24.20;;;;;;6153516;23;20188;-88
2021/07/24 10:09:35;;;;;;;14.02;12.55;;;32.30;24.80;;;;;;6153008;23;20179;-86
2021/07/24 10:12:04;;;;;;;12.55;11.38;;;31.90;27.10;;;;;;6154581;23;20564;-88
2021/07/24 10:14:31;;;;;;;32.53;29.48;;;31.90;25.80;;;;;;6152881;23;20635;-90
2021/07/24 10:17:00;;;;;;;14.18;12.93;;;32.60;24.50;;;;;;6148877;23;20302;-91
2021/07/24 10:19:28;;;;;;;16.45;14.88;;;33.20;23.80;;;;;;6151402;23;20178;-88
2021/07/24 10:21:58;;;;;;;13.05;11.65;;;33.10;24.30;;;;;;6151725;23;20692;-90
2021/07/24 10:24:26;;;;;;;14.95;13.50;;;33.00;21.80;;;;;;6125145;23;20179;-90
2021/07/24 10:26:58;;;;;;;13.23;11.82;;;32.00;24.80;;;;;;6151495;23;21138;-87
2021/07/24 10:29:30;;;;;;;13.23;11.48;;;31.60;25.80;;;;;;6150794;23;20209;-87
2021/07/24 10:32:04;;;;;;;13.88;12.48;;;31.20;27.20;;;;;;6153553;23;20230;-87
2021/07/24 10:34:33;;;;;;;13.40;12.00;;;31.10;27.00;;;;;;6156616;23;20190;-87
2021/07/24 10:37:41;;;;;;;15.43;12.43;;;30.80;26.90;;;;;;6155081;23;20211;-87
2021/07/24 10:40:35;;;;;;;13.35;11.88;;;30.40;28.70;;;;;;6155744;23;20194;-87
2021/07/24 10:43:06;;;;;;;14.15;12.02;;;30.20;29.20;;;;;;6156272;23;20246;-89
2021/07/24 10:45:52;;;;;;;13.35;11.95;;;29.50;31.30;;;;;;6153007;23;20209;-91
2021/07/24 10:48:44;;;;;;;13.52;11.27;;;29.50;32.40;;;;;;6154188;23;20202;-89
2021/07/24 10:51:18;;;;;;;13.23;11.88;;;29.40;33.00;;;;;;6154547;23;20542;-88
2021/07/24 10:54:18;;;;;;;12.95;11.63;;;30.10;33.20;;;;;;6155087;23;20242;-85
2021/07/24 10:56:46;;;;;;;15.63;12.77;;;30.30;29.60;;;;;;6155332;23;20576;-88
2021/07/24 10:59:28;;;;;;;15.23;12.93;;;30.50;28.70;;;;;;6156200;23;20171;-87
2021/07/24 11:01:57;;;;;;;14.15;12.23;;;30.60;30.30;;;;;;6154924;23;20237;-89
2021/07/24 11:04:43;;;;;;;24.25;21.85;;;30.80;30.90;;;;;;6156959;23;20177;-87
2021/07/24 11:07:47;;;;;;;14.10;12.50;;;31.20;27.10;;;;;;6157340;23;20187;-86
2021/07/24 11:10:15;;;;;;;17.98;16.20;;;31.50;27.90;;;;;;6154815;23;20206;-91
2021/07/24 11:12:46;;;;;;;15.10;12.35;;;31.70;27.70;;;;;;6156724;23;20262;-91
2021/07/24 11:15:18;;;;;;;14.32;12.05;;;31.80;27.60;;;;;;6156649;23;20179;-90
2021/07/24 11:17:45;;;;;;;12.68;11.50;;;31.60;25.80;;;;;;6156175;23;20163;-92
2021/07/24 11:23:27;;;;;;;15.55;12.23;;;30.70;28.10;;;;;;6118794;23;20546;-90
2021/07/24 11:26:01;;;;;;;15.50;12.13;;;30.10;29.40;;;;;;6153767;23;20207;-89
2021/07/24 11:28:29;;;;;;;14.00;12.15;;;30.10;30.30;;;;;;6154586;23;20186;-89
2021/07/24 11:31:03;;;;;;;15.68;12.35;;;30.00;31.30;;;;;;6152576;23;20206;-90
2021/07/24 11:33:32;;;;;;;15.10;12.82;;;29.70;31.80;;;;;;6153559;23;20166;-88
2021/07/24 11:36:04;;;;;;;14.25;12.48;;;29.50;33.70;;;;;;6155430;23;20685;-87
2021/07/24 11:38:32;;;;;;;15.55;12.15;;;29.40;30.60;;;;;;6163220;23;20167;-86
2021/07/24 11:41:07;;;;;;;13.20;11.85;;;29.10;34.40;;;;;;6159653;23;20213;-87
2021/07/24 11:43:37;;;;;;;16.38;12.45;;;29.20;32.20;;;;;;6157953;23;20193;-86
2021/07/24 11:46:06;;;;;;;13.50;11.90;;;29.40;32.80;;;;;;6158275;23;20211;-87
2021/07/24 11:48:34;;;;;;;14.40;12.90;;;29.60;33.40;;;;;;6155235;23;20206;-87
2021/07/24 11:51:05;;;;;;;14.57;12.45;;;29.30;30.00;;;;;;6151721;23;20207;-88
2021/07/24 11:53:33;;;;;;;14.13;12.60;;;28.40;31.70;;;;;;6153453;23;20242;-88
2021/07/24 11:56:00;;;;;;;16.45;12.27;;;28.80;35.70;;;;;;6153716;23;20341;-88
2021/07/24 11:58:28;;;;;;;14.52;12.45;;;28.70;31.70;;;;;;6153822;23;20254;-88
2021/07/24 12:00:59;;;;;;;14.20;11.88;;;28.50;32.90;;;;;;6152599;23;20233;-85
2021/07/24 12:03:27;;;;;;;14.02;11.85;;;28.50;33.10;;;;;;6158183;23;20163;-87
2021/07/24 12:05:57;;;;;;;14.30;12.15;;;28.60;32.50;;;;;;6161723;23;20262;-87
2021/07/24 12:08:27;;;;;;;17.10;15.30;;;28.90;32.10;;;;;;6160674;23;20524;-87
2021/07/24 12:10:54;;;;;;;30.15;27.17;;;29.40;32.00;;;;;;6158844;23;20305;-84
2021/07/24 12:13:24;;;;;;;32.20;28.92;;;29.70;30.20;;;;;;6159706;23;20183;-86
2021/07/24 12:16:04;;;;;;;20.13;18.08;;;29.90;29.40;;;;;;6160401;23;20481;-85
2021/07/24 12:18:40;;;;;;;20.88;18.80;;;29.90;30.30;;;;;;6159769;23;20678;-86
2021/07/24 12:21:16;;;;;;;14.55;13.05;;;29.60;30.50;;;;;;6162121;23;20281;-87
2021/07/24 12:23:55;;;;;;;16.08;14.02;;;30.00;31.60;;;;;;6164455;23;20186;-87
2021/07/24 12:26:23;;;;;;;16.25;12.48;;;30.00;28.20;;;;;;6163113;23;20290;-86
2021/07/24 12:28:50;;;;;;;15.75;12.15;;;29.90;27.60;;;;;;6161155;23;20186;-88
2021/07/24 12:31:21;;;;;;;13.82;11.43;;;29.10;29.00;;;;;;6159689;23;20210;-87
2021/07/24 12:33:52;;;;;;;14.23;12.73;;;29.20;31.40;;;;;;6155005;23;20702;-87
2021/07/24 12:36:22;;;;;;;13.98;12.52;;;29.30;29.90;;;;;;6155249;23;20278;-86
2021/07/24 12:38:53;;;;;;;16.55;12.23;;;29.10;29.80;;;;;;6155220;23;20179;-86
2021/07/24 12:41:31;;;;;;;15.00;12.93;;;29.10;29.80;;;;;;6155779;23;20892;-85
2021/07/24 12:44:09;;;;;;;14.75;12.20;;;28.80;30.40;;;;;;6161478;23;20245;-84
2021/07/24 12:46:38;;;;;;;15.00;13.40;;;28.50;32.10;;;;;;6158352;23;20245;-86